createdAt,value
2022-07-31T00:00:33.812Z,0.00
2022-07-31T00:01:33.847Z,0.00
2022-07-31T00:02:34.129Z,0.00
2022-07-31T00:03:34.025Z,0.00
2022-07-31T00:05:41.582Z,0.00
2022-07-31T00:06:34.021Z,0.00
2022-07-31T00:08:34.091Z,0.00
2022-07-31T00:09:52.395Z,0.00
2022-07-31T00:10:34.165Z,0.00
2022-07-31T00:12:34.247Z,0.00
2022-07-31T00:13:57.159Z,0.00
2022-07-31T00:14:34.313Z,0.00
2022-07-31T00:15:34.369Z,0.00
2022-07-31T00:16:34.382Z,0.00
2022-07-31T00:17:34.433Z,0.00
2022-07-31T00:18:34.449Z,0.00
2022-07-31T00:19:34.504Z,0.00
2022-07-31T00:21:34.554Z,0.00
2022-07-31T00:22:34.874Z,0.00
2022-07-31T00:23:34.625Z,0.00
2022-07-31T00:24:34.658Z,0.00
2022-07-31T00:25:34.697Z,0.00
2022-07-31T00:26:34.772Z,0.00
2022-07-31T00:28:34.803Z,0.00
2022-07-31T00:29:34.851Z,0.00
2022-07-31T00:30:34.874Z,0.00
2022-07-31T00:33:34.980Z,0.00
2022-07-31T00:34:35.035Z,0.00
2022-07-31T00:37:35.119Z,0.00
2022-07-31T00:38:35.160Z,0.00
2022-07-31T00:39:35.192Z,0.00
2022-07-31T00:40:35.241Z,0.00
2022-07-31T00:41:35.517Z,0.00
2022-07-31T00:42:35.304Z,0.00
2022-07-31T00:43:35.338Z,0.00
2022-07-31T00:44:35.380Z,0.00
2022-07-31T00:45:35.428Z,0.00
2022-07-31T00:46:35.447Z,0.00
2022-07-31T00:47:35.477Z,0.00
2022-07-31T00:48:35.527Z,0.00
2022-07-31T00:49:37.477Z,0.00
2022-07-31T00:50:35.583Z,0.00
2022-07-31T00:51:35.626Z,0.00
2022-07-31T00:52:35.655Z,0.00
2022-07-31T00:53:35.690Z,0.00
2022-07-31T00:55:41.823Z,0.00
2022-07-31T00:56:35.795Z,0.00
2022-07-31T00:57:35.841Z,0.00
2022-07-31T00:58:35.865Z,0.00
2022-07-31T00:59:35.914Z,0.00
2022-07-31T01:00:36.237Z,0.00
2022-07-31T01:01:36.031Z,0.00
2022-07-31T01:02:36.019Z,0.00
2022-07-31T01:03:36.175Z,0.00
2022-07-31T01:04:36.081Z,0.00
2022-07-31T01:05:36.131Z,0.00
2022-07-31T01:06:39.719Z,0.00
2022-07-31T01:07:36.494Z,0.00
2022-07-31T01:08:36.220Z,0.00
2022-07-31T01:09:36.254Z,0.00
2022-07-31T01:10:36.305Z,0.00
2022-07-31T01:11:36.327Z,0.00
2022-07-31T01:12:36.362Z,0.00
2022-07-31T01:13:36.395Z,0.00
2022-07-31T01:14:36.733Z,0.00
2022-07-31T01:15:36.470Z,0.00
2022-07-31T01:16:36.523Z,0.00
2022-07-31T01:17:36.549Z,0.00
2022-07-31T01:18:36.573Z,0.00
2022-07-31T01:19:38.137Z,0.00
2022-07-31T01:20:36.641Z,0.00
2022-07-31T01:21:36.689Z,0.00
2022-07-31T01:22:36.717Z,0.00
2022-07-31T01:23:36.759Z,0.00
2022-07-31T01:24:36.786Z,0.00
2022-07-31T01:25:36.819Z,0.00
2022-07-31T01:26:36.854Z,0.00
2022-07-31T01:27:49.659Z,0.00
2022-07-31T01:28:36.927Z,0.00
2022-07-31T01:29:36.968Z,0.00
2022-07-31T01:30:36.998Z,0.00
2022-07-31T01:31:37.061Z,0.00
2022-07-31T01:32:37.088Z,0.00
2022-07-31T01:33:37.106Z,0.00
2022-07-31T01:34:37.136Z,0.00
2022-07-31T01:35:37.175Z,0.00
2022-07-31T01:36:37.205Z,0.00
2022-07-31T01:37:37.250Z,0.00
2022-07-31T01:38:37.354Z,0.00
2022-07-31T01:39:37.317Z,0.00
2022-07-31T01:40:37.348Z,0.00
2022-07-31T01:41:37.384Z,0.00
2022-07-31T01:42:37.419Z,0.00
2022-07-31T01:43:37.457Z,0.00
2022-07-31T01:44:37.796Z,0.00
2022-07-31T01:45:37.525Z,0.00
2022-07-31T01:46:41.676Z,0.00
2022-07-31T01:47:37.594Z,0.00
2022-07-31T01:48:37.636Z,0.00
2022-07-31T01:49:37.678Z,0.00
2022-07-31T01:50:43.633Z,0.00
2022-07-31T01:51:38.036Z,0.00
2022-07-31T01:52:37.779Z,0.00
2022-07-31T01:53:37.807Z,0.00
2022-07-31T01:54:37.849Z,0.00
2022-07-31T01:56:03.832Z,0.00
2022-07-31T01:56:37.909Z,0.00
2022-07-31T01:57:37.946Z,0.00
2022-07-31T01:58:37.989Z,0.00
2022-07-31T01:59:38.019Z,0.00
2022-07-31T02:00:38.185Z,0.00
2022-07-31T02:01:38.167Z,0.00
2022-07-31T02:02:38.128Z,0.00
2022-07-31T02:03:44.224Z,0.00
2022-07-31T02:04:38.496Z,0.00
2022-07-31T02:05:38.230Z,0.00
2022-07-31T02:06:38.271Z,0.00
2022-07-31T02:07:38.299Z,0.00
2022-07-31T02:08:38.332Z,0.00
2022-07-31T02:09:52.056Z,0.00
2022-07-31T02:10:38.432Z,0.00
2022-07-31T02:11:53.326Z,0.00
2022-07-31T02:12:38.477Z,0.00
2022-07-31T02:14:38.549Z,0.00
2022-07-31T02:15:38.579Z,0.00
2022-07-31T02:16:38.618Z,0.00
2022-07-31T02:17:38.649Z,0.00
2022-07-31T02:18:38.783Z,0.00
2022-07-31T02:19:38.745Z,0.00
2022-07-31T02:20:38.753Z,0.00
2022-07-31T02:21:38.789Z,0.00
2022-07-31T02:22:39.126Z,0.00
2022-07-31T02:23:38.864Z,0.00
2022-07-31T02:24:38.894Z,0.00
2022-07-31T02:25:38.930Z,0.00
2022-07-31T02:26:38.965Z,0.00
2022-07-31T02:27:55.558Z,0.00
2022-07-31T02:28:39.037Z,0.00
2022-07-31T02:29:39.331Z,0.00
2022-07-31T02:30:39.930Z,0.00
2022-07-31T02:31:39.141Z,0.00
2022-07-31T02:32:39.178Z,0.00
2022-07-31T02:33:39.210Z,0.00
2022-07-31T02:34:39.253Z,0.00
2022-07-31T02:35:39.282Z,0.00
2022-07-31T02:36:39.820Z,0.00
2022-07-31T02:37:39.350Z,0.00
2022-07-31T02:38:39.388Z,0.00
2022-07-31T02:39:39.431Z,0.00
2022-07-31T02:40:39.460Z,0.00
2022-07-31T02:42:39.568Z,0.00
2022-07-31T02:43:39.579Z,0.00
2022-07-31T02:44:39.595Z,0.00
2022-07-31T02:45:39.632Z,0.00
2022-07-31T02:46:39.667Z,0.00
2022-07-31T02:47:39.700Z,0.00
2022-07-31T02:48:39.736Z,0.00
2022-07-31T02:49:40.073Z,0.00
2022-07-31T02:50:39.817Z,0.00
2022-07-31T02:51:39.849Z,0.00
2022-07-31T02:52:39.894Z,0.00
2022-07-31T02:53:39.917Z,0.00
2022-07-31T02:54:39.947Z,0.00
2022-07-31T02:55:39.983Z,0.00
2022-07-31T02:56:40.315Z,0.00
2022-07-31T02:57:40.054Z,0.00
2022-07-31T02:58:40.088Z,0.00
2022-07-31T02:59:40.121Z,0.00
2022-07-31T03:00:40.206Z,0.00
2022-07-31T03:01:40.198Z,0.00
2022-07-31T03:02:40.477Z,0.00
2022-07-31T03:04:40.297Z,0.00
2022-07-31T03:05:40.358Z,0.00
2022-07-31T03:06:40.371Z,0.00
2022-07-31T03:07:40.402Z,0.00
2022-07-31T03:08:40.804Z,0.00
2022-07-31T03:09:40.483Z,0.00
2022-07-31T03:10:40.511Z,0.00
2022-07-31T03:11:40.546Z,0.00
2022-07-31T03:12:40.577Z,0.00
2022-07-31T03:13:40.611Z,0.00
2022-07-31T03:14:40.950Z,0.00
2022-07-31T03:15:40.684Z,0.00
2022-07-31T03:16:40.733Z,0.00
2022-07-31T03:17:41.801Z,0.00
2022-07-31T03:18:40.792Z,0.00
2022-07-31T03:19:40.823Z,0.00
2022-07-31T03:20:40.881Z,0.00
2022-07-31T03:21:41.195Z,0.00
2022-07-31T03:22:40.933Z,0.00
2022-07-31T03:23:41.009Z,0.00
2022-07-31T03:24:40.996Z,0.00
2022-07-31T03:25:41.033Z,0.00
2022-07-31T03:26:41.069Z,0.00
2022-07-31T03:27:41.098Z,0.00
2022-07-31T03:28:41.437Z,0.00
2022-07-31T03:29:43.260Z,0.00
2022-07-31T03:30:41.208Z,0.00
2022-07-31T03:31:41.241Z,0.00
2022-07-31T03:32:41.476Z,0.00
2022-07-31T03:33:41.310Z,0.00
2022-07-31T03:34:41.349Z,0.00
2022-07-31T03:36:41.717Z,0.00
2022-07-31T03:37:41.452Z,0.00
2022-07-31T03:38:43.965Z,0.00
2022-07-31T03:39:41.558Z,0.00
2022-07-31T03:40:41.556Z,0.00
2022-07-31T03:41:41.594Z,0.00
2022-07-31T03:42:41.727Z,0.00
2022-07-31T03:43:44.114Z,0.00
2022-07-31T03:44:41.692Z,0.00
2022-07-31T03:45:41.729Z,0.00
2022-07-31T03:46:41.767Z,0.00
2022-07-31T03:47:41.799Z,0.00
2022-07-31T03:48:41.845Z,0.00
2022-07-31T03:49:41.875Z,0.00
2022-07-31T03:50:41.904Z,0.00
2022-07-31T03:51:41.975Z,0.00
2022-07-31T03:52:41.977Z,0.00
2022-07-31T03:53:42.011Z,0.00
2022-07-31T03:54:42.044Z,0.00
2022-07-31T03:55:42.086Z,0.00
2022-07-31T03:56:42.118Z,0.00
2022-07-31T03:57:42.155Z,0.00
2022-07-31T03:58:42.186Z,0.00
2022-07-31T03:59:48.636Z,0.00
2022-07-31T04:00:42.258Z,0.00
2022-07-31T04:01:58.397Z,0.00
2022-07-31T04:02:42.376Z,0.00
2022-07-31T04:03:42.372Z,0.00
2022-07-31T04:04:42.398Z,0.00
2022-07-31T04:05:42.431Z,0.00
2022-07-31T04:06:42.464Z,0.00
2022-07-31T04:07:42.759Z,5.63
2022-07-31T04:08:42.534Z,5.63
2022-07-31T04:09:42.583Z,5.63
2022-07-31T04:10:42.604Z,5.63
2022-07-31T04:11:42.639Z,5.63
2022-07-31T04:12:42.674Z,5.63
2022-07-31T04:13:42.958Z,5.63
2022-07-31T04:15:42.778Z,5.63
2022-07-31T04:16:42.813Z,5.63
2022-07-31T04:17:42.846Z,5.63
2022-07-31T04:18:42.884Z,5.63
2022-07-31T04:19:43.216Z,5.63
2022-07-31T04:20:42.955Z,5.63
2022-07-31T04:21:42.990Z,5.63
2022-07-31T04:22:43.023Z,5.63
2022-07-31T04:23:43.056Z,11.25
2022-07-31T04:24:43.094Z,11.25
2022-07-31T04:25:43.164Z,11.25
2022-07-31T04:26:43.460Z,11.25
2022-07-31T04:27:48.303Z,11.25
2022-07-31T04:28:43.241Z,11.25
2022-07-31T04:29:43.283Z,11.25
2022-07-31T04:30:43.301Z,11.25
2022-07-31T04:31:43.338Z,11.25
2022-07-31T04:32:43.379Z,11.25
2022-07-31T04:33:47.333Z,11.25
2022-07-31T04:34:43.442Z,11.25
2022-07-31T04:35:43.497Z,11.25
2022-07-31T04:36:43.512Z,11.25
2022-07-31T04:37:48.105Z,11.25
2022-07-31T04:38:43.583Z,11.25
2022-07-31T04:39:43.616Z,16.88
2022-07-31T04:40:43.660Z,16.88
2022-07-31T04:41:43.684Z,16.88
2022-07-31T04:42:43.726Z,16.88
2022-07-31T04:43:43.754Z,16.88
2022-07-31T04:44:43.789Z,16.88
2022-07-31T04:45:43.826Z,16.88
2022-07-31T04:47:44.195Z,16.88
2022-07-31T04:48:43.929Z,16.88
2022-07-31T04:49:43.974Z,16.88
2022-07-31T04:50:44.005Z,16.88
2022-07-31T04:52:44.067Z,16.88
2022-07-31T04:53:44.102Z,16.88
2022-07-31T04:54:44.440Z,16.88
2022-07-31T04:55:44.177Z,22.50
2022-07-31T04:57:44.244Z,22.50
2022-07-31T04:58:44.277Z,22.50
2022-07-31T04:59:59.073Z,22.50
2022-07-31T05:00:44.348Z,22.50
2022-07-31T05:01:44.749Z,22.50
2022-07-31T05:02:44.422Z,22.50
2022-07-31T05:03:44.553Z,22.50
2022-07-31T05:04:44.489Z,22.50
2022-07-31T05:05:44.520Z,22.50
2022-07-31T05:06:44.556Z,28.13
2022-07-31T05:07:44.591Z,28.13
2022-07-31T05:08:44.927Z,28.13
2022-07-31T05:09:44.665Z,28.13
2022-07-31T05:10:44.702Z,33.75
2022-07-31T05:11:44.742Z,33.75
2022-07-31T05:12:44.767Z,33.75
2022-07-31T05:13:44.799Z,33.75
2022-07-31T05:14:44.882Z,33.75
2022-07-31T05:15:44.870Z,33.75
2022-07-31T05:16:44.905Z,33.75
2022-07-31T05:17:44.942Z,33.75
2022-07-31T05:18:44.976Z,33.75
2022-07-31T05:19:45.010Z,39.38
2022-07-31T05:20:45.047Z,39.38
2022-07-31T05:21:51.382Z,39.38
2022-07-31T05:22:45.118Z,39.38
2022-07-31T05:23:45.203Z,33.75
2022-07-31T05:24:45.188Z,33.75
2022-07-31T05:25:45.223Z,33.75
2022-07-31T05:26:45.258Z,33.75
2022-07-31T05:27:45.291Z,33.75
2022-07-31T05:28:46.584Z,33.75
2022-07-31T05:29:45.360Z,39.38
2022-07-31T05:30:45.482Z,39.38
2022-07-31T05:32:00.320Z,39.38
2022-07-31T05:33:45.503Z,45.00
2022-07-31T05:34:45.850Z,45.00
2022-07-31T05:35:45.569Z,45.00
2022-07-31T05:36:45.620Z,45.00
2022-07-31T05:37:45.645Z,45.00
2022-07-31T05:38:45.680Z,50.63
2022-07-31T05:39:45.811Z,50.63
2022-07-31T05:40:45.747Z,50.63
2022-07-31T05:41:45.791Z,50.63
2022-07-31T05:42:45.832Z,50.63
2022-07-31T05:43:45.859Z,50.63
2022-07-31T05:44:45.884Z,50.63
2022-07-31T05:45:45.928Z,50.63
2022-07-31T05:46:45.970Z,56.25
2022-07-31T05:47:46.007Z,56.25
2022-07-31T05:48:46.115Z,56.25
2022-07-31T05:49:46.063Z,56.25
2022-07-31T05:50:46.097Z,61.88
2022-07-31T05:51:46.379Z,61.88
2022-07-31T05:52:46.467Z,61.88
2022-07-31T05:53:46.310Z,61.88
2022-07-31T05:54:46.240Z,61.88
2022-07-31T05:55:46.292Z,61.88
2022-07-31T05:56:46.315Z,61.88
2022-07-31T05:57:46.445Z,61.88
2022-07-31T05:58:48.501Z,61.88
2022-07-31T05:59:46.717Z,61.88
2022-07-31T06:00:46.446Z,61.88
2022-07-31T06:01:46.651Z,56.25
2022-07-31T06:02:46.517Z,56.25
2022-07-31T06:03:51.965Z,56.25
2022-07-31T06:04:46.594Z,56.25
2022-07-31T06:05:46.623Z,56.25
2022-07-31T06:06:46.905Z,56.25
2022-07-31T06:07:51.325Z,61.88
2022-07-31T06:08:46.729Z,61.88
2022-07-31T06:09:46.776Z,61.88
2022-07-31T06:10:46.796Z,61.88
2022-07-31T06:11:46.834Z,61.88
2022-07-31T06:12:46.884Z,61.88
2022-07-31T06:13:47.239Z,61.88
2022-07-31T06:14:46.937Z,61.88
2022-07-31T06:15:49.395Z,56.25
2022-07-31T06:16:47.012Z,56.25
2022-07-31T06:17:47.050Z,56.25
2022-07-31T06:18:47.077Z,56.25
2022-07-31T06:20:47.399Z,56.25
2022-07-31T06:21:47.201Z,56.25
2022-07-31T06:22:47.220Z,56.25
2022-07-31T06:23:47.254Z,56.25
2022-07-31T06:24:47.295Z,56.25
2022-07-31T06:25:47.326Z,56.25
2022-07-31T06:26:47.659Z,56.25
2022-07-31T06:27:52.011Z,56.25
2022-07-31T06:28:49.247Z,56.25
2022-07-31T06:29:47.486Z,56.25
2022-07-31T06:30:47.507Z,56.25
2022-07-31T06:31:47.535Z,61.88
2022-07-31T06:32:47.823Z,61.88
2022-07-31T06:33:48.567Z,61.88
2022-07-31T06:34:47.642Z,67.50
2022-07-31T06:35:47.676Z,67.50
2022-07-31T06:36:47.714Z,67.50
2022-07-31T06:37:47.792Z,67.50
2022-07-31T06:38:47.797Z,73.13
2022-07-31T06:39:54.832Z,73.13
2022-07-31T06:40:47.853Z,78.75
2022-07-31T06:41:47.899Z,78.75
2022-07-31T06:42:47.928Z,78.75
2022-07-31T06:43:47.965Z,78.75
2022-07-31T06:44:48.303Z,78.75
2022-07-31T06:45:52.019Z,78.75
2022-07-31T06:46:48.984Z,78.75
2022-07-31T06:47:48.106Z,78.75
2022-07-31T06:48:48.219Z,78.75
2022-07-31T06:49:48.187Z,78.75
2022-07-31T06:50:48.205Z,78.75
2022-07-31T06:51:48.490Z,73.13
2022-07-31T06:52:48.276Z,73.13
2022-07-31T06:53:48.317Z,67.50
2022-07-31T06:54:48.347Z,67.50
2022-07-31T06:55:48.379Z,67.50
2022-07-31T06:56:48.417Z,67.50
2022-07-31T06:58:48.742Z,73.13
2022-07-31T06:59:48.528Z,73.13
2022-07-31T07:00:48.559Z,78.75
2022-07-31T07:01:48.673Z,78.75
2022-07-31T07:02:48.629Z,84.38
2022-07-31T07:03:48.664Z,84.38
2022-07-31T07:04:58.402Z,84.38
2022-07-31T07:05:48.736Z,84.38
2022-07-31T07:06:48.771Z,84.38
2022-07-31T07:08:48.868Z,73.13
2022-07-31T07:09:48.988Z,73.13
2022-07-31T07:10:48.916Z,73.13
2022-07-31T07:11:54.468Z,73.13
2022-07-31T07:12:48.993Z,73.13
2022-07-31T07:13:49.017Z,73.13
2022-07-31T07:14:49.055Z,67.50
2022-07-31T07:15:49.092Z,67.50
2022-07-31T07:16:49.126Z,67.50
2022-07-31T07:17:49.166Z,67.50
2022-07-31T07:18:49.196Z,67.50
2022-07-31T07:19:49.616Z,67.50
2022-07-31T07:20:49.332Z,73.13
2022-07-31T07:21:49.301Z,73.13
2022-07-31T07:22:49.338Z,73.13
2022-07-31T07:23:49.372Z,78.75
2022-07-31T07:24:49.413Z,78.75
2022-07-31T07:25:49.443Z,78.75
2022-07-31T07:26:49.482Z,78.75
2022-07-31T07:27:49.524Z,73.13
2022-07-31T07:28:49.556Z,67.50
2022-07-31T07:29:49.619Z,67.50
2022-07-31T07:30:49.640Z,61.88
2022-07-31T07:31:49.658Z,67.50
2022-07-31T07:32:49.692Z,67.50
2022-07-31T07:33:49.732Z,73.13
2022-07-31T07:34:49.771Z,78.75
2022-07-31T07:35:49.803Z,78.75
2022-07-31T07:36:49.835Z,84.38
2022-07-31T07:37:49.868Z,90.00
2022-07-31T07:39:49.942Z,101.25
2022-07-31T07:40:49.974Z,106.88
2022-07-31T07:41:50.021Z,106.88
2022-07-31T07:42:50.050Z,106.88
2022-07-31T07:43:52.553Z,101.25
2022-07-31T07:44:50.124Z,106.88
2022-07-31T07:45:50.157Z,106.88
2022-07-31T07:46:50.198Z,106.88
2022-07-31T07:48:02.355Z,112.50
2022-07-31T07:48:50.313Z,112.50
2022-07-31T07:49:50.297Z,118.13
2022-07-31T07:50:50.333Z,123.75
2022-07-31T07:51:58.447Z,123.75
2022-07-31T07:52:50.507Z,129.38
2022-07-31T07:53:50.692Z,135.00
2022-07-31T07:54:50.474Z,140.63
2022-07-31T07:55:50.518Z,140.63
2022-07-31T07:56:50.551Z,146.25
2022-07-31T07:57:50.591Z,146.25
2022-07-31T07:58:51.127Z,146.25
2022-07-31T07:59:51.052Z,140.63
2022-07-31T08:00:51.333Z,140.63
2022-07-31T08:01:51.506Z,140.63
2022-07-31T08:03:47.395Z,146.25
2022-07-31T08:03:52.331Z,151.88
2022-07-31T08:05:51.169Z,151.88
2022-07-31T08:06:50.915Z,151.88
2022-07-31T08:07:51.037Z,146.25
2022-07-31T08:08:50.982Z,135.00
2022-07-31T08:09:51.011Z,129.38
2022-07-31T08:10:51.049Z,129.38
2022-07-31T08:11:51.082Z,123.75
2022-07-31T08:12:51.420Z,123.75
2022-07-31T08:14:51.189Z,129.38
2022-07-31T08:15:51.226Z,129.38
2022-07-31T08:16:51.266Z,135.00
2022-07-31T08:17:51.312Z,140.63
2022-07-31T08:18:51.337Z,140.63
2022-07-31T08:19:51.496Z,146.25
2022-07-31T08:20:51.423Z,157.50
2022-07-31T08:21:51.453Z,163.13
2022-07-31T08:22:51.477Z,163.13
2022-07-31T08:23:51.512Z,157.50
2022-07-31T08:24:51.551Z,151.88
2022-07-31T08:25:51.612Z,151.88
2022-07-31T08:26:51.637Z,146.25
2022-07-31T08:27:51.669Z,140.63
2022-07-31T08:28:51.692Z,140.63
2022-07-31T08:29:51.742Z,135.00
2022-07-31T08:30:51.767Z,135.00
2022-07-31T08:31:51.826Z,135.00
2022-07-31T08:32:51.839Z,135.00
2022-07-31T08:33:51.873Z,135.00
2022-07-31T08:34:51.909Z,135.00
2022-07-31T08:35:51.983Z,129.38
2022-07-31T08:36:51.979Z,129.38
2022-07-31T08:38:02.242Z,129.38
2022-07-31T08:38:52.058Z,129.38
2022-07-31T08:39:52.109Z,129.38
2022-07-31T08:40:52.125Z,135.00
2022-07-31T08:41:52.160Z,135.00
2022-07-31T08:42:52.501Z,135.00
2022-07-31T08:44:02.129Z,140.63
2022-07-31T08:44:52.267Z,146.25
2022-07-31T08:45:52.304Z,146.25
2022-07-31T08:46:52.340Z,140.63
2022-07-31T08:47:52.380Z,135.00
2022-07-31T08:48:52.482Z,129.38
2022-07-31T08:49:52.785Z,123.75
2022-07-31T08:50:53.972Z,118.13
2022-07-31T08:51:52.867Z,118.13
2022-07-31T08:52:52.558Z,118.13
2022-07-31T08:53:52.595Z,112.50
2022-07-31T08:54:52.628Z,112.50
2022-07-31T08:55:57.070Z,112.50
2022-07-31T08:56:52.775Z,112.50
2022-07-31T08:57:52.736Z,112.50
2022-07-31T08:58:52.827Z,118.13
2022-07-31T08:59:52.840Z,118.13
2022-07-31T09:00:52.898Z,112.50
2022-07-31T09:01:52.907Z,112.50
2022-07-31T09:02:52.919Z,106.88
2022-07-31T09:03:52.952Z,106.88
2022-07-31T09:04:53.171Z,106.88
2022-07-31T09:06:53.064Z,112.50
2022-07-31T09:07:53.131Z,118.13
2022-07-31T09:08:53.433Z,129.38
2022-07-31T09:09:53.167Z,140.63
2022-07-31T09:10:53.204Z,151.88
2022-07-31T09:11:53.257Z,157.50
2022-07-31T09:12:53.427Z,157.50
2022-07-31T09:14:01.442Z,151.88
2022-07-31T09:14:53.349Z,157.50
2022-07-31T09:15:53.394Z,157.50
2022-07-31T09:16:53.422Z,168.75
2022-07-31T09:18:53.496Z,180.00
2022-07-31T09:19:55.002Z,185.63
2022-07-31T09:20:53.572Z,185.63
2022-07-31T09:21:53.601Z,185.63
2022-07-31T09:22:53.647Z,191.25
2022-07-31T09:23:53.685Z,185.63
2022-07-31T09:24:53.723Z,185.63
2022-07-31T09:25:53.750Z,180.00
2022-07-31T09:26:53.783Z,174.38
2022-07-31T09:27:54.124Z,168.75
2022-07-31T09:28:53.861Z,168.75
2022-07-31T09:29:53.894Z,157.50
2022-07-31T09:30:55.610Z,146.25
2022-07-31T09:31:53.964Z,140.63
2022-07-31T09:32:54.011Z,135.00
2022-07-31T09:33:54.037Z,135.00
2022-07-31T09:34:54.106Z,135.00
2022-07-31T09:35:54.114Z,140.63
2022-07-31T09:36:54.154Z,146.25
2022-07-31T09:37:54.187Z,163.13
2022-07-31T09:38:54.221Z,174.38
2022-07-31T09:39:54.257Z,191.25
2022-07-31T09:40:57.003Z,202.50
2022-07-31T09:41:58.288Z,208.13
2022-07-31T09:42:55.297Z,202.50
2022-07-31T09:43:54.404Z,191.25
2022-07-31T09:45:54.484Z,185.63
2022-07-31T09:46:54.511Z,191.25
2022-07-31T09:47:54.549Z,191.25
2022-07-31T09:48:56.695Z,196.88
2022-07-31T09:49:54.625Z,202.50
2022-07-31T09:50:54.813Z,202.50
2022-07-31T09:51:54.694Z,202.50
2022-07-31T09:52:55.031Z,202.50
2022-07-31T09:53:54.767Z,202.50
2022-07-31T09:54:54.808Z,208.13
2022-07-31T09:55:54.839Z,202.50
2022-07-31T09:56:54.896Z,208.13
2022-07-31T09:57:54.913Z,208.13
2022-07-31T09:58:54.952Z,202.50
2022-07-31T09:59:54.989Z,202.50
2022-07-31T10:00:55.040Z,202.50
2022-07-31T10:01:55.437Z,196.88
2022-07-31T10:02:55.107Z,191.25
2022-07-31T10:03:55.133Z,196.88
2022-07-31T10:04:55.178Z,202.50
2022-07-31T10:05:55.468Z,202.50
2022-07-31T10:06:55.243Z,208.13
2022-07-31T10:07:55.279Z,208.13
2022-07-31T10:08:55.321Z,208.13
2022-07-31T10:09:55.357Z,208.13
2022-07-31T10:10:55.399Z,202.50
2022-07-31T10:11:55.680Z,202.50
2022-07-31T10:12:55.467Z,208.13
2022-07-31T10:13:55.501Z,208.13
2022-07-31T10:14:55.535Z,208.13
2022-07-31T10:15:55.577Z,208.13
2022-07-31T10:16:55.611Z,208.13
2022-07-31T10:17:55.948Z,202.50
2022-07-31T10:18:55.685Z,196.88
2022-07-31T10:19:55.721Z,196.88
2022-07-31T10:20:55.762Z,202.50
2022-07-31T10:21:55.827Z,208.13
2022-07-31T10:22:55.832Z,213.75
2022-07-31T10:23:55.872Z,213.75
2022-07-31T10:24:56.156Z,208.13
2022-07-31T10:25:55.951Z,208.13
2022-07-31T10:27:10.353Z,202.50
2022-07-31T10:27:56.018Z,202.50
2022-07-31T10:28:56.054Z,196.88
2022-07-31T10:29:56.099Z,191.25
2022-07-31T10:30:56.227Z,174.38
2022-07-31T10:31:56.486Z,157.50
2022-07-31T10:32:56.239Z,140.63
2022-07-31T10:33:56.240Z,129.38
2022-07-31T10:34:56.274Z,129.38
2022-07-31T10:35:56.315Z,135.00
2022-07-31T10:36:56.366Z,140.63
2022-07-31T10:37:56.475Z,146.25
2022-07-31T10:38:56.424Z,151.88
2022-07-31T10:39:56.461Z,157.50
2022-07-31T10:40:56.494Z,157.50
2022-07-31T10:41:56.557Z,168.75
2022-07-31T10:42:56.572Z,180.00
2022-07-31T10:43:56.607Z,174.38
2022-07-31T10:44:56.643Z,174.38
2022-07-31T10:45:56.678Z,185.63
2022-07-31T10:46:56.716Z,202.50
2022-07-31T10:47:56.753Z,219.38
2022-07-31T10:48:56.874Z,230.63
2022-07-31T10:49:56.828Z,236.25
2022-07-31T10:50:56.864Z,247.50
2022-07-31T10:51:56.907Z,247.50
2022-07-31T10:53:00.578Z,236.25
2022-07-31T10:55:23.130Z,230.63
2022-07-31T10:56:23.164Z,225.00
2022-07-31T10:57:23.205Z,225.00
2022-07-31T10:58:23.238Z,219.38
2022-07-31T10:59:23.278Z,219.38
2022-07-31T11:00:23.317Z,219.38
2022-07-31T11:01:23.407Z,219.38
2022-07-31T11:02:23.389Z,213.75
2022-07-31T11:03:23.532Z,208.13
2022-07-31T11:04:23.561Z,196.88
2022-07-31T11:05:23.553Z,191.25
2022-07-31T11:06:23.539Z,191.25
2022-07-31T11:07:23.575Z,196.88
2022-07-31T11:08:23.662Z,208.13
2022-07-31T11:09:23.647Z,213.75
2022-07-31T11:10:23.687Z,219.38
2022-07-31T11:11:26.263Z,225.00
2022-07-31T11:12:23.777Z,230.63
2022-07-31T11:13:23.805Z,230.63
2022-07-31T11:14:23.830Z,230.63
2022-07-31T11:15:23.873Z,225.00
2022-07-31T11:16:23.906Z,225.00
2022-07-31T11:18:20.994Z,230.63
2022-07-31T11:18:27.727Z,230.63
2022-07-31T11:19:24.025Z,230.63
2022-07-31T11:20:24.309Z,213.75
2022-07-31T11:22:31.985Z,202.50
2022-07-31T11:24:24.210Z,202.50
2022-07-31T11:25:24.264Z,208.13
2022-07-31T11:28:24.356Z,230.63
2022-07-31T11:29:59.506Z,230.63
2022-07-31T11:30:24.427Z,230.63
2022-07-31T11:31:24.769Z,225.00
2022-07-31T11:32:25.758Z,219.38
2022-07-31T11:33:24.547Z,202.50
2022-07-31T11:34:24.618Z,196.88
2022-07-31T11:35:24.616Z,196.88
2022-07-31T11:36:24.664Z,196.88
2022-07-31T11:37:24.689Z,191.25
2022-07-31T11:38:24.724Z,191.25
2022-07-31T11:39:31.412Z,196.88
2022-07-31T11:40:27.834Z,208.13
2022-07-31T11:41:24.860Z,208.13
2022-07-31T11:42:27.319Z,219.38
2022-07-31T11:43:26.204Z,225.00
2022-07-31T11:44:24.959Z,230.63
2022-07-31T11:45:24.987Z,230.63
2022-07-31T11:48:10.152Z,219.38
2022-07-31T11:48:27.532Z,219.38
2022-07-31T11:50:25.481Z,213.75
2022-07-31T11:52:31.001Z,230.63
2022-07-31T11:53:25.294Z,230.63
2022-07-31T11:54:25.326Z,241.88
2022-07-31T11:55:25.360Z,230.63
2022-07-31T11:56:25.405Z,225.00
2022-07-31T11:57:25.438Z,219.38
2022-07-31T11:58:25.476Z,225.00
2022-07-31T11:59:45.980Z,213.75
2022-07-31T12:00:28.817Z,185.63
2022-07-31T12:01:25.590Z,163.13
2022-07-31T12:02:25.678Z,163.13
2022-07-31T12:03:25.674Z,174.38
2022-07-31T12:04:25.702Z,196.88
2022-07-31T12:05:38.636Z,225.00
2022-07-31T12:06:25.773Z,236.25
2022-07-31T12:07:25.811Z,236.25
2022-07-31T12:08:25.850Z,225.00
2022-07-31T12:10:02.657Z,213.75
2022-07-31T12:10:25.926Z,213.75
2022-07-31T12:11:25.959Z,219.38
2022-07-31T12:12:27.393Z,208.13
2022-07-31T12:13:26.034Z,208.13
2022-07-31T12:14:26.076Z,219.38
2022-07-31T12:15:26.115Z,213.75
2022-07-31T12:16:26.163Z,202.50
2022-07-31T12:17:26.185Z,208.13
2022-07-31T12:18:26.474Z,219.38
2022-07-31T12:19:26.260Z,213.75
2022-07-31T12:20:35.420Z,213.75
2022-07-31T12:21:26.334Z,213.75
2022-07-31T12:22:26.383Z,219.38
2022-07-31T12:23:40.919Z,230.63
2022-07-31T12:24:26.454Z,236.25
2022-07-31T12:25:26.486Z,230.63
2022-07-31T12:26:26.524Z,225.00
2022-07-31T12:27:26.556Z,219.38
2022-07-31T12:28:26.598Z,202.50
2022-07-31T12:29:26.635Z,191.25
2022-07-31T12:31:27.014Z,208.13
2022-07-31T12:32:26.746Z,185.63
2022-07-31T12:33:26.814Z,174.38
2022-07-31T12:34:26.834Z,174.38
2022-07-31T12:35:26.863Z,174.38
2022-07-31T12:36:27.054Z,168.75
2022-07-31T12:37:26.937Z,174.38
2022-07-31T12:38:45.263Z,180.00
2022-07-31T12:39:50.780Z,202.50
2022-07-31T12:40:27.054Z,230.63
2022-07-31T12:41:27.115Z,247.50
2022-07-31T12:42:30.491Z,253.13
2022-07-31T12:43:27.162Z,247.50
2022-07-31T12:44:27.200Z,230.63
2022-07-31T12:45:27.251Z,208.13
2022-07-31T12:46:27.286Z,185.63
2022-07-31T12:47:27.329Z,185.63
2022-07-31T12:48:27.346Z,191.25
2022-07-31T12:49:27.442Z,196.88
2022-07-31T12:50:27.505Z,202.50
2022-07-31T12:52:27.858Z,213.75
2022-07-31T12:53:27.685Z,213.75
2022-07-31T12:54:27.702Z,208.13
2022-07-31T12:55:27.660Z,208.13
2022-07-31T12:56:27.722Z,213.75
2022-07-31T12:57:27.688Z,225.00
2022-07-31T12:58:27.768Z,225.00
2022-07-31T12:59:28.096Z,230.63
2022-07-31T13:00:27.856Z,236.25
2022-07-31T13:01:27.968Z,236.25
2022-07-31T13:02:28.132Z,230.63
2022-07-31T13:03:38.790Z,236.25
2022-07-31T13:04:27.978Z,241.88
2022-07-31T13:05:28.146Z,247.50
2022-07-31T13:06:28.325Z,247.50
2022-07-31T13:07:28.413Z,241.88
2022-07-31T13:08:28.213Z,241.88
2022-07-31T13:09:28.163Z,241.88
2022-07-31T13:10:31.972Z,236.25
2022-07-31T13:12:28.364Z,247.50
2022-07-31T13:13:28.402Z,247.50
2022-07-31T13:14:28.322Z,236.25
2022-07-31T13:15:28.360Z,225.00
2022-07-31T13:16:28.409Z,213.75
2022-07-31T13:17:28.454Z,213.75
2022-07-31T13:18:28.626Z,213.75
2022-07-31T13:19:28.609Z,208.13
2022-07-31T13:20:28.623Z,208.13
2022-07-31T13:21:28.699Z,213.75
2022-07-31T13:22:28.769Z,219.38
2022-07-31T13:23:28.698Z,230.63
2022-07-31T13:24:28.779Z,236.25
2022-07-31T13:25:28.877Z,247.50
2022-07-31T13:26:28.873Z,253.13
2022-07-31T13:27:28.948Z,247.50
2022-07-31T13:28:29.200Z,247.50
2022-07-31T13:29:29.054Z,258.75